createdAt,value
2023-05-06T00:01:25.541Z,12.06
2023-05-06T00:03:54.237Z,12.08
2023-05-06T00:06:22.561Z,12.12
2023-05-06T00:08:50.780Z,12.17
2023-05-06T00:11:18.794Z,12.23
2023-05-06T00:13:46.817Z,12.28
2023-05-06T00:16:15.456Z,12.32
2023-05-06T00:18:43.690Z,12.35
2023-05-06T00:21:11.670Z,12.37
2023-05-06T00:23:39.699Z,12.39
2023-05-06T00:26:07.713Z,12.40
2023-05-06T00:28:35.859Z,12.40
2023-05-06T00:31:03.852Z,12.44
2023-05-06T00:33:31.994Z,12.49
2023-05-06T00:36:00.125Z,12.54
2023-05-06T00:38:28.308Z,12.60
2023-05-06T00:40:56.739Z,12.61
2023-05-06T00:43:24.853Z,12.62
2023-05-06T00:45:53.200Z,12.64
2023-05-06T00:48:21.800Z,12.62
2023-05-06T00:50:50.026Z,12.63
2023-05-06T00:53:23.517Z,12.63
2023-05-06T00:55:51.672Z,12.62
2023-05-06T00:58:20.708Z,12.65
2023-05-06T01:00:52.483Z,12.70
2023-05-06T01:03:21.151Z,12.75
2023-05-06T01:06:15.305Z,12.76
2023-05-06T01:09:06.177Z,12.76
2023-05-06T01:11:45.728Z,12.77
2023-05-06T01:14:41.646Z,12.79
2023-05-06T01:17:13.155Z,12.78
2023-05-06T01:19:49.125Z,12.77
2023-05-06T01:22:18.467Z,12.78
2023-05-06T01:24:47.079Z,12.81
2023-05-06T01:27:17.011Z,12.83
2023-05-06T01:29:47.335Z,12.85
2023-05-06T01:32:18.356Z,12.85
2023-05-06T01:35:00.024Z,12.86
2023-05-06T01:37:37.276Z,12.86
2023-05-06T01:40:07.753Z,12.86
2023-05-06T01:42:38.032Z,12.87
2023-05-06T01:45:08.624Z,12.86
2023-05-06T01:47:40.849Z,12.87
2023-05-06T01:50:10.017Z,12.91
2023-05-06T01:52:38.036Z,12.93
2023-05-06T01:55:07.132Z,12.94
2023-05-06T01:57:35.883Z,12.94
2023-05-06T02:00:04.115Z,12.94
2023-05-06T02:02:40.468Z,12.90
2023-05-06T02:05:09.000Z,12.89
2023-05-06T02:07:39.434Z,12.88
2023-05-06T02:10:08.975Z,12.89
2023-05-06T02:12:39.881Z,12.90
2023-05-06T02:15:09.241Z,12.92
2023-05-06T02:17:38.742Z,12.88
2023-05-06T02:20:09.691Z,12.83
2023-05-06T02:22:37.752Z,12.82
2023-05-06T02:25:06.620Z,12.79
2023-05-06T04:47:44.770Z,14.66
2023-05-06T04:50:13.749Z,14.75
2023-05-06T04:52:42.662Z,14.83
2023-05-06T04:55:12.572Z,14.90
2023-05-06T04:57:45.540Z,14.99
2023-05-06T05:00:14.755Z,15.10
2023-05-06T05:02:43.248Z,15.21
2023-05-06T05:05:12.710Z,15.30
2023-05-06T05:07:41.618Z,15.37
2023-05-06T05:10:10.836Z,15.44
2023-05-06T05:12:39.815Z,15.52
2023-05-06T05:15:08.678Z,15.61
2023-05-06T05:17:38.448Z,15.69
2023-05-06T05:20:08.037Z,15.75
2023-05-06T05:22:37.459Z,15.85
2023-05-06T05:25:08.326Z,15.92
2023-05-06T05:27:37.025Z,16.00
2023-05-06T05:30:05.912Z,16.07
2023-05-06T05:32:34.769Z,16.14
2023-05-06T05:35:03.880Z,16.21
2023-05-06T05:37:32.102Z,16.30
2023-05-06T05:40:00.163Z,16.35
2023-05-06T05:42:28.256Z,16.41
2023-05-06T05:44:57.465Z,16.47
2023-05-06T05:47:26.413Z,16.51
2023-05-06T05:49:55.110Z,16.56
2023-05-06T05:52:24.834Z,16.64
2023-05-06T05:54:52.950Z,16.73
2023-05-06T05:57:21.473Z,16.79
2023-05-06T05:59:49.593Z,16.82
2023-05-06T06:02:18.123Z,16.85
2023-05-06T06:04:46.317Z,16.91
2023-05-06T06:07:14.457Z,16.98
2023-05-06T06:09:46.837Z,17.03
2023-05-06T06:12:15.717Z,17.09
2023-05-06T06:14:48.144Z,17.16
2023-05-06T06:17:18.268Z,17.23
2023-05-06T06:19:47.318Z,17.28
2023-05-06T06:22:15.315Z,17.36
2023-05-06T06:24:43.979Z,17.40
2023-05-06T06:27:12.458Z,17.43
2023-05-06T06:29:40.881Z,17.47
2023-05-06T06:32:09.054Z,17.52
2023-05-06T06:34:37.122Z,17.62
2023-05-06T06:37:06.730Z,17.69
2023-05-06T06:39:35.972Z,17.74
2023-05-06T06:42:04.489Z,17.77
2023-05-06T06:44:37.432Z,17.77
2023-05-06T06:47:05.547Z,17.84
2023-05-06T06:49:33.598Z,17.94
2023-05-06T06:52:01.586Z,18.02
2023-05-06T06:54:29.810Z,18.05
2023-05-06T06:56:57.828Z,18.08
2023-05-06T06:59:25.815Z,18.14
2023-05-06T07:01:53.864Z,18.20
2023-05-06T07:04:21.971Z,18.26
2023-05-06T07:06:50.006Z,18.29
2023-05-06T07:09:18.167Z,18.40
2023-05-06T07:11:46.248Z,18.51
2023-05-06T07:14:14.376Z,18.57
2023-05-06T07:16:44.520Z,18.63
2023-05-06T07:19:14.121Z,18.75
2023-05-06T07:21:42.340Z,18.84
2023-05-06T07:24:10.370Z,18.89
2023-05-06T07:26:38.677Z,18.97
2023-05-06T07:29:06.697Z,18.99
2023-05-06T07:31:34.893Z,19.08
2023-05-06T07:34:02.933Z,19.21
2023-05-06T07:36:36.117Z,19.26
2023-05-06T07:39:05.698Z,19.29
2023-05-06T07:41:33.920Z,19.40
2023-05-06T07:44:02.344Z,19.52
2023-05-06T07:46:30.581Z,19.60
2023-05-06T07:48:58.883Z,19.64
2023-05-06T07:51:27.133Z,19.71
2023-05-06T07:53:55.221Z,19.73
2023-05-06T07:56:23.241Z,19.82
2023-05-06T07:58:51.467Z,19.85
2023-05-06T08:01:19.385Z,19.87
2023-05-06T08:03:47.640Z,19.90
2023-05-06T08:06:15.822Z,19.97
2023-05-06T08:08:44.048Z,20.07
2023-05-06T08:11:12.063Z,20.13
2023-05-06T08:13:40.182Z,20.14
2023-05-06T08:16:08.379Z,20.12
2023-05-06T08:18:36.429Z,20.18
2023-05-06T08:21:04.960Z,20.16
2023-05-06T08:23:33.065Z,20.27
2023-05-06T08:26:02.189Z,20.41
2023-05-06T08:28:30.309Z,20.56
2023-05-06T08:30:58.331Z,20.66
2023-05-06T08:33:26.451Z,20.66
2023-05-06T08:35:57.784Z,20.71
2023-05-06T08:38:26.648Z,20.75
2023-05-06T08:40:55.024Z,20.81
2023-05-06T08:43:26.297Z,20.85
2023-05-06T08:45:55.611Z,20.85
2023-05-06T08:48:23.695Z,20.86
2023-05-06T08:50:54.811Z,20.94
2023-05-06T08:53:23.248Z,20.98
2023-05-06T08:55:53.983Z,21.07
2023-05-06T08:58:24.915Z,21.18
2023-05-06T09:00:53.083Z,21.34
2023-05-06T09:03:21.434Z,21.48
2023-05-06T09:05:49.667Z,21.57
2023-05-06T09:08:17.788Z,21.63
2023-05-06T09:10:46.367Z,21.71
2023-05-06T09:13:19.957Z,21.71
2023-05-06T09:15:49.271Z,21.75
2023-05-06T09:18:17.392Z,21.84
2023-05-06T09:20:47.742Z,21.97
2023-05-06T09:23:18.068Z,22.01
2023-05-06T09:25:47.987Z,22.02
2023-05-06T09:28:16.000Z,22.06
2023-05-06T09:30:47.680Z,22.12
2023-05-06T09:33:16.308Z,22.17
2023-05-06T09:35:44.575Z,22.30
2023-05-06T09:38:12.681Z,22.43
2023-05-06T09:40:41.015Z,22.47
2023-05-06T09:43:10.221Z,22.51
2023-05-06T09:45:39.067Z,22.63
2023-05-06T09:48:08.634Z,22.54
2023-05-06T09:50:37.010Z,22.55
2023-05-06T09:53:06.033Z,22.63
2023-05-06T09:55:35.552Z,22.62
2023-05-06T09:58:06.433Z,22.56
2023-05-06T10:00:35.716Z,22.62
2023-05-06T10:03:05.187Z,22.74
2023-05-06T10:05:35.123Z,22.78
2023-05-06T10:08:04.584Z,22.79
2023-05-06T10:10:34.508Z,22.89
2023-05-06T10:13:04.787Z,22.93
2023-05-06T10:15:33.458Z,23.05
2023-05-06T10:18:02.122Z,23.05
2023-05-06T10:20:31.707Z,22.95
2023-05-06T10:23:14.985Z,23.08
2023-05-06T10:25:45.019Z,23.20
2023-05-06T10:28:26.268Z,23.23
2023-05-06T10:31:00.167Z,23.20
2023-05-06T10:33:29.337Z,23.06
2023-05-06T10:36:20.655Z,23.07
2023-05-06T10:38:56.994Z,23.17
2023-05-06T10:41:28.131Z,23.11
2023-05-06T10:43:57.784Z,23.07
2023-05-06T10:46:27.957Z,23.09
2023-05-06T10:49:06.401Z,23.24
2023-05-06T10:51:43.977Z,23.30
2023-05-06T10:54:32.266Z,23.25
2023-05-06T10:57:10.672Z,23.17
2023-05-06T10:59:46.297Z,23.12
2023-05-06T11:02:16.881Z,23.16
2023-05-06T11:04:51.971Z,23.27
2023-05-06T11:07:24.172Z,23.11
2023-05-06T11:10:01.103Z,23.05
2023-05-06T11:12:47.740Z,22.89
2023-05-06T11:15:19.764Z,22.86
2023-05-06T11:17:47.874Z,23.03
2023-05-06T11:20:23.042Z,23.08
2023-05-06T11:22:52.031Z,22.88
2023-05-06T11:25:47.846Z,22.83
2023-05-06T11:28:16.192Z,22.74
2023-05-06T11:30:54.023Z,22.79
2023-05-06T11:33:24.754Z,22.83
2023-05-06T11:35:53.374Z,22.89
2023-05-06T11:38:21.497Z,22.90
2023-05-06T11:40:49.624Z,22.75
2023-05-06T11:43:17.736Z,22.71
2023-05-06T11:45:50.808Z,22.65
2023-05-06T11:48:18.989Z,22.74
2023-05-06T11:50:48.704Z,22.78
2023-05-06T11:53:19.229Z,22.82
2023-05-06T11:55:49.472Z,22.77
2023-05-06T11:58:28.932Z,22.65
2023-05-06T12:00:59.220Z,22.56
2023-05-06T12:03:29.517Z,22.59
2023-05-06T12:05:58.010Z,22.64
2023-05-06T12:08:36.386Z,22.65
2023-05-06T12:11:09.096Z,22.71
2023-05-06T12:13:37.938Z,22.93
2023-05-06T12:16:08.428Z,22.90
2023-05-06T12:18:36.570Z,22.88
2023-05-06T12:21:04.688Z,22.96
2023-05-06T12:23:33.171Z,22.95
2023-05-06T12:26:06.836Z,22.91
2023-05-06T12:28:37.092Z,22.90
2023-05-06T12:31:24.263Z,22.89
2023-05-06T12:33:53.307Z,23.00
2023-05-06T12:36:22.911Z,23.09
2023-05-06T12:38:54.384Z,23.13
2023-05-06T12:41:24.377Z,23.19
2023-05-06T12:43:53.091Z,23.19
2023-05-06T12:46:21.376Z,23.18
2023-05-06T12:49:00.546Z,23.28
2023-05-06T12:51:30.909Z,23.28
2023-05-06T12:53:59.024Z,23.30
2023-05-06T12:56:27.041Z,23.38
2023-05-06T12:58:59.073Z,23.25
2023-05-06T13:01:27.367Z,23.22
2023-05-06T13:03:57.560Z,23.16
2023-05-06T13:06:25.750Z,23.15
2023-05-06T13:08:53.659Z,23.05
2023-05-06T13:11:22.459Z,22.99
2023-05-06T13:13:50.701Z,23.06
2023-05-06T13:16:18.858Z,23.02
2023-05-06T13:18:47.047Z,22.94
2023-05-06T13:21:15.163Z,22.80
2023-05-06T13:23:47.710Z,22.75
2023-05-06T13:26:16.132Z,22.61
2023-05-06T13:28:44.236Z,22.70
2023-05-06T13:31:12.278Z,22.87
2023-05-06T13:33:40.283Z,22.78
2023-05-06T13:36:08.920Z,22.75
2023-05-06T13:38:36.926Z,22.41
2023-05-06T13:41:05.945Z,22.07
2023-05-06T13:43:33.967Z,21.82
2023-05-06T13:46:02.037Z,21.68
2023-05-06T13:48:30.005Z,21.61
2023-05-06T13:50:58.323Z,21.42
2023-05-06T13:53:26.576Z,21.13
2023-05-06T13:55:54.567Z,21.00
2023-05-06T13:58:22.586Z,20.85
2023-05-06T14:00:50.749Z,20.75
2023-05-06T14:03:18.725Z,20.76
2023-05-06T14:05:46.741Z,20.71
2023-05-06T14:08:14.767Z,20.59
2023-05-06T14:10:42.785Z,20.46
2023-05-06T14:13:11.622Z,20.49
2023-05-06T14:15:39.727Z,20.43
2023-05-06T14:18:07.782Z,20.47
2023-05-06T14:20:36.084Z,20.40
2023-05-06T14:23:07.089Z,20.37
2023-05-06T14:25:35.118Z,20.35
2023-05-06T14:28:03.351Z,20.35
2023-05-06T14:30:32.560Z,20.34
2023-05-06T14:33:00.728Z,20.28
2023-05-06T14:35:28.796Z,20.39
2023-05-06T14:37:56.813Z,20.34
2023-05-06T14:40:25.029Z,20.26
2023-05-06T14:42:53.755Z,20.29
2023-05-06T14:45:21.779Z,20.39
2023-05-06T14:47:49.919Z,20.41
2023-05-06T14:50:18.636Z,20.40
2023-05-06T14:52:46.850Z,20.26
2023-05-06T14:55:15.164Z,20.30
2023-05-06T14:57:43.080Z,20.45
2023-05-06T15:00:14.941Z,20.43
2023-05-06T15:02:43.258Z,20.44
2023-05-06T15:05:12.263Z,20.47
2023-05-06T15:07:40.884Z,20.38
2023-05-06T15:10:09.298Z,20.23
2023-05-06T15:12:37.622Z,20.31
2023-05-06T15:15:06.744Z,20.18
2023-05-06T15:17:34.984Z,20.06
2023-05-06T15:20:04.587Z,20.04
2023-05-06T15:22:32.612Z,20.11
2023-05-06T15:25:01.665Z,20.08
2023-05-06T15:27:30.856Z,20.08
2023-05-06T15:30:04.234Z,20.06
2023-05-06T15:32:32.340Z,20.04
2023-05-06T15:35:01.244Z,20.06
2023-05-06T15:37:29.267Z,20.06
2023-05-06T15:39:57.781Z,20.18
2023-05-06T15:42:26.007Z,20.15
2023-05-06T15:44:55.225Z,20.06
2023-05-06T15:47:23.298Z,20.01
2023-05-06T15:49:54.872Z,20.05
2023-05-06T15:52:23.608Z,20.04
2023-05-06T15:54:51.786Z,20.06
2023-05-06T15:57:19.845Z,20.10
2023-05-06T15:59:47.859Z,20.00
2023-05-06T16:04:47.154Z,19.75
2023-05-06T16:07:15.927Z,19.68
2023-05-06T16:09:44.752Z,19.55
2023-05-06T16:12:14.776Z,19.50
2023-05-06T16:14:42.813Z,19.40
2023-05-06T16:17:10.920Z,19.36
2023-05-06T16:19:38.942Z,19.28
2023-05-06T16:22:06.968Z,19.15
2023-05-06T16:24:34.975Z,19.04
2023-05-06T16:27:03.098Z,18.90
2023-05-06T16:29:31.516Z,18.77
2023-05-06T16:32:00.857Z,18.62
2023-05-06T16:34:28.998Z,18.37
2023-05-06T16:36:58.388Z,18.11
2023-05-06T16:39:26.506Z,17.84
2023-05-06T16:41:54.521Z,17.68
2023-05-06T16:44:22.558Z,17.48
2023-05-06T16:46:50.575Z,17.29
2023-05-06T16:49:21.213Z,17.17
2023-05-06T16:51:49.216Z,17.08
2023-05-06T16:54:17.441Z,16.92
2023-05-06T16:56:52.158Z,16.75
2023-05-06T16:59:22.383Z,16.61
2023-05-06T17:01:51.024Z,16.47
2023-05-06T17:04:19.159Z,16.38
2023-05-06T17:06:47.443Z,16.32
2023-05-06T17:09:15.588Z,16.19
2023-05-06T17:11:44.050Z,16.11
2023-05-06T17:14:12.024Z,16.05
2023-05-06T17:16:40.786Z,15.99
2023-05-06T17:19:09.164Z,15.90
2023-05-06T17:21:37.189Z,15.84
2023-05-06T17:24:06.216Z,15.76
2023-05-06T17:26:35.286Z,15.69
2023-05-06T17:29:03.456Z,15.62
2023-05-06T17:31:31.491Z,15.51
2023-05-06T17:33:59.792Z,15.44
2023-05-06T17:36:28.111Z,15.39
2023-05-06T17:39:06.082Z,15.35
2023-05-06T17:41:34.195Z,15.32
2023-05-06T17:44:02.157Z,15.27
2023-05-06T17:46:31.428Z,15.23
2023-05-06T17:48:59.657Z,15.17
2023-05-06T17:51:27.669Z,15.12
2023-05-06T17:53:56.004Z,15.04
2023-05-06T17:56:24.615Z,15.01
2023-05-06T17:58:53.037Z,14.97
2023-05-06T18:01:21.071Z,14.93
2023-05-06T18:03:49.433Z,14.88
2023-05-06T18:06:18.802Z,14.84
2023-05-06T18:08:47.222Z,14.79
2023-05-06T18:11:16.246Z,14.75
2023-05-06T18:13:44.370Z,14.73
2023-05-06T18:16:12.424Z,14.71
2023-05-06T18:18:40.605Z,14.69
2023-05-06T18:21:08.623Z,14.67
2023-05-06T18:23:36.656Z,14.62
2023-05-06T18:26:05.962Z,14.61
2023-05-06T18:28:37.055Z,14.60
2023-05-06T18:31:06.781Z,14.56
2023-05-06T18:33:35.946Z,14.54
2023-05-06T18:36:04.089Z,14.50
2023-05-06T18:38:32.203Z,14.48
2023-05-06T18:41:02.020Z,14.46
2023-05-06T18:43:30.933Z,14.44
2023-05-06T18:45:59.114Z,14.42
2023-05-06T18:48:27.274Z,14.39
2023-05-06T18:50:55.498Z,14.35
2023-05-06T18:53:23.523Z,14.31
2023-05-06T18:55:51.835Z,14.26
2023-05-06T18:58:19.969Z,14.22
2023-05-06T19:00:48.021Z,14.20
2023-05-06T19:03:16.100Z,14.16
2023-05-06T19:05:44.122Z,14.15
2023-05-06T19:08:13.946Z,14.13
2023-05-06T19:10:41.964Z,14.13
2023-05-06T19:13:10.049Z,14.13
2023-05-06T19:15:38.116Z,14.13
2023-05-06T19:18:07.165Z,14.10
2023-05-06T19:20:35.750Z,14.07
2023-05-06T19:23:04.921Z,14.07
2023-05-06T19:25:36.608Z,14.07
2023-05-06T19:28:05.834Z,14.07
2023-05-06T19:30:35.713Z,14.05
2023-05-06T19:33:04.638Z,14.05
2023-05-06T19:35:32.802Z,14.02
2023-05-06T19:38:00.916Z,14.01
2023-05-06T19:40:29.237Z,13.99
2023-05-06T19:43:03.787Z,13.97
2023-05-06T19:45:33.161Z,13.96
2023-05-06T19:48:04.239Z,13.94
2023-05-06T19:50:35.502Z,13.92
2023-05-06T19:53:03.608Z,13.89
2023-05-06T19:55:32.210Z,13.88
2023-05-06T19:58:00.645Z,13.84
2023-05-06T20:00:30.410Z,13.79
2023-05-06T20:03:00.122Z,13.73
2023-05-06T20:05:32.082Z,13.66
2023-05-06T20:08:00.551Z,13.60
2023-05-06T20:10:29.058Z,13.54
2023-05-06T20:12:57.982Z,13.48
2023-05-06T20:15:26.849Z,13.42
2023-05-06T20:17:54.984Z,13.39
2023-05-06T20:20:23.249Z,13.33
2023-05-06T20:22:51.281Z,13.28
2023-05-06T20:25:19.758Z,13.23
2023-05-06T20:27:47.599Z,13.20
2023-05-06T20:30:15.690Z,13.15
2023-05-06T20:32:43.881Z,13.10
2023-05-06T20:35:14.076Z,13.08
2023-05-06T20:37:42.196Z,13.09
2023-05-06T20:40:10.921Z,13.10
2023-05-06T20:42:38.938Z,13.09
2023-05-06T20:45:07.852Z,13.07
2023-05-06T20:47:36.714Z,13.06
2023-05-06T20:50:05.399Z,13.06
2023-05-06T20:52:34.333Z,13.08
2023-05-06T20:55:03.427Z,13.14
2023-05-06T20:57:31.462Z,13.16
2023-05-06T20:59:59.685Z,13.13
2023-05-06T21:02:30.183Z,13.12
2023-05-06T21:04:58.334Z,13.10
2023-05-06T21:07:26.354Z,13.04
2023-05-06T21:09:54.367Z,13.05
2023-05-06T21:12:22.395Z,13.05
2023-05-06T21:14:50.410Z,13.02
2023-05-06T21:17:18.460Z,13.03
2023-05-06T21:19:48.763Z,13.04
2023-05-06T21:22:16.772Z,13.07
2023-05-06T21:24:44.793Z,13.09
2023-05-06T21:27:12.818Z,13.12
2023-05-06T21:29:40.838Z,13.15
2023-05-06T21:32:08.955Z,13.21
2023-05-06T21:34:36.975Z,13.28
2023-05-06T21:37:05.111Z,13.34
2023-05-06T21:39:33.114Z,13.39
2023-05-06T21:42:01.443Z,13.43
2023-05-06T21:44:29.454Z,13.47
2023-05-06T21:46:57.514Z,13.47
2023-05-06T21:49:25.630Z,13.47
2023-05-06T21:51:53.614Z,13.46
2023-05-06T21:54:21.836Z,13.47
2023-05-06T21:56:50.049Z,13.44
2023-05-06T21:59:19.872Z,13.44
2023-05-06T22:01:48.379Z,13.41
2023-05-06T22:04:16.981Z,13.37
2023-05-06T22:06:45.142Z,13.36
2023-05-06T22:09:13.361Z,13.35
2023-05-06T22:11:41.484Z,13.33
2023-05-06T22:14:09.647Z,13.34
2023-05-06T22:16:41.683Z,13.38
2023-05-06T22:19:09.757Z,13.42
2023-05-06T22:21:37.877Z,13.44
2023-05-06T22:24:06.404Z,13.47
2023-05-06T22:26:34.441Z,13.49
2023-05-06T22:29:02.443Z,13.50
2023-05-06T22:31:30.606Z,13.50
2023-05-06T22:34:03.718Z,13.51
2023-05-06T22:36:34.833Z,13.50
2023-05-06T22:39:03.149Z,13.52
2023-05-06T22:41:31.363Z,13.52
2023-05-06T22:44:00.215Z,13.52
2023-05-06T22:46:29.296Z,13.51
2023-05-06T22:48:58.132Z,13.51
2023-05-06T22:51:26.263Z,13.50
2023-05-06T22:53:54.274Z,13.48
2023-05-06T22:56:22.294Z,13.50
2023-05-06T22:58:50.407Z,13.49
2023-05-06T23:01:18.805Z,13.49
2023-05-06T23:03:46.953Z,13.47
2023-05-06T23:06:15.072Z,13.45
2023-05-06T23:08:43.095Z,13.45
2023-05-06T23:11:11.107Z,13.42
2023-05-06T23:13:39.129Z,13.44
2023-05-06T23:16:07.962Z,13.44
2023-05-06T23:18:36.774Z,13.45
2023-05-06T23:21:05.199Z,13.46
2023-05-06T23:23:33.217Z,13.45
2023-05-06T23:26:01.235Z,13.43
2023-05-06T23:28:29.572Z,13.38
2023-05-06T23:30:57.776Z,13.35
2023-05-06T23:33:25.897Z,13.32
2023-05-06T23:35:53.917Z,13.27
2023-05-06T23:38:21.940Z,13.20
2023-05-06T23:40:49.959Z,13.15
2023-05-06T23:43:17.977Z,13.12
2023-05-06T23:45:46.151Z,13.09
2023-05-06T23:48:14.216Z,13.02
2023-05-06T23:50:42.242Z,12.96
2023-05-06T23:53:10.357Z,12.91
2023-05-06T23:55:38.476Z,12.89
2023-05-06T23:58:06.494Z,12.88
